Aydin, Turkey
Current Conditions -  °F | °C
As of 8:20 PM on Thursday 27 Nov 2014 (Local Time) from LTFE Reporting Station
Few Clouds Few Clouds  
Wind Chill: 44°   Ceiling: Unl
Heat Index: 46°   Visibility: 6mi
Dew Point: 39°   Wind: 5mph
Humidity: 76%   Direction: 100°E
Pressure: 30.12"   Gusts: NA
Location:  37.86°N, 27.84°E
Report Text: LTFE 271720Z 10004KT 9999 FEW035 08/04 Q1020 NOSIG
Loading
Personal Weather Stations






























Interactive Weather Map New forecast layout! Learn more

10-Day Weather Forecast

Advertisements
Track Severe Weather on mobile